Schedule Details


Flight Number: CTN443
Departure: Schwechat (LOWW) at 19:45
Arrival: Franjo Tudman (LDZA) at 20:40
Route: SASAL?DCT?SUNIS?DCT?PETOV

Weather Information
LOWW 072350Z 25003KT 210V270 CAVOK 19/17 Q1020 NOSIG
LDZA 072330Z 23003KT CAVOK 19/18 Q1018 NOSIG
Schedule Frequency

Route Map